createdAt,value
2023-04-06T00:18:39.542Z,0.56
2023-04-06T00:38:42.274Z,0.52
2023-04-06T00:58:44.956Z,0.29
2023-04-06T01:18:47.892Z,-0.06
2023-04-06T01:38:50.796Z,-0.20
2023-04-06T01:58:53.720Z,-0.55
2023-04-06T02:18:56.477Z,-0.36
2023-04-06T02:38:59.666Z,-0.64
2023-04-06T02:59:02.358Z,-1.07
2023-04-06T03:19:05.233Z,-1.27
2023-04-06T03:39:08.648Z,-1.49
2023-04-06T03:59:11.902Z,-1.72
2023-04-06T04:19:17.381Z,-1.91
2023-04-06T04:39:20.230Z,-1.78
2023-04-06T04:59:22.912Z,-1.49
2023-04-06T05:19:25.834Z,-0.83
2023-04-06T05:39:29.904Z,-0.37
2023-04-06T05:59:32.596Z,0.38
2023-04-06T06:19:35.718Z,1.21
2023-04-06T06:39:38.648Z,1.58
2023-04-06T06:59:41.710Z,2.40
2023-04-06T07:19:44.805Z,3.79
2023-04-06T07:39:47.957Z,3.72
2023-04-06T07:59:51.016Z,3.51
2023-04-06T08:19:53.783Z,3.13
2023-04-06T08:39:56.821Z,2.90
2023-04-06T08:59:59.609Z,3.47
2023-04-06T09:20:02.502Z,3.14
2023-04-06T09:40:05.560Z,3.59
2023-04-06T10:00:15.128Z,3.99
2023-04-06T10:20:18.162Z,4.77
2023-04-06T10:40:21.109Z,4.60
2023-04-06T11:00:23.939Z,4.98
2023-04-06T11:20:26.928Z,5.06
2023-04-06T11:40:32.978Z,5.42
2023-04-06T12:00:37.118Z,4.74
2023-04-06T12:20:40.617Z,4.98
2023-04-06T12:40:45.481Z,4.15
2023-04-06T13:00:48.418Z,3.03
2023-04-06T13:20:51.376Z,3.14
2023-04-06T13:40:54.155Z,2.17
2023-04-06T14:00:56.984Z,1.82
2023-04-06T14:21:00.408Z,2.51
2023-04-06T14:41:03.197Z,2.45
2023-04-06T15:01:06.113Z,2.46
2023-04-06T15:21:09.485Z,2.31
2023-04-06T15:41:14.968Z,2.23
2023-04-06T16:01:17.822Z,2.09
2023-04-06T16:21:20.863Z,2.13
2023-04-06T16:41:23.736Z,2.10
2023-04-06T17:01:33.627Z,2.10
2023-04-06T17:21:36.341Z,2.32
2023-04-06T17:41:40.205Z,2.38
2023-04-06T18:01:44.185Z,2.34
2023-04-06T18:21:46.906Z,2.48
2023-04-06T18:41:49.586Z,2.43
2023-04-06T19:01:55.232Z,2.20
2023-04-06T19:21:58.887Z,2.28
2023-04-06T19:42:02.177Z,2.04
2023-04-06T20:02:05.104Z,2.24
2023-04-06T20:22:08.563Z,2.03
2023-04-06T20:42:11.972Z,2.03
2023-04-06T21:02:14.742Z,1.86
2023-04-06T22:23:27.951Z,1.68
